Time;durP1;ratioP1;P1;durP2;ratioP2;P2;SDS_P1;SDS_P2;PMS_P1;PMS_P2;Temp;Humidity;BMP_temperature;BMP_pressure;BME280_temperature;BME280_humidity;BME280_pressure;Samples;Min_cycle;Max_cycle;Signal;HPM_P1;HPM_P2
2023/07/18 00:01:01;;;;;;;;;;;;;;;20.54;32.58;101106.50;4924398;28;98145;-70
2023/07/18 00:03:28;;;;;;;;;;;;;;;20.50;32.60;101115.69;4920150;28;98746;-71
2023/07/18 00:05:55;;;;;;;;;;;;;;;20.47;32.56;101122.56;4886226;28;98286;-70
2023/07/18 00:08:22;;;;;;;;;;;;;;;20.46;32.55;101136.59;4905820;28;98110;-70
2023/07/18 00:10:48;;;;;;;;;;;;;;;20.45;32.63;101132.25;4922275;28;100897;-70
2023/07/18 00:13:15;;;;;;;;;;;;;;;20.41;32.70;101134.81;4927094;28;98133;-71
2023/07/18 00:15:44;;;;;;;;;;;;;;;20.40;32.67;101140.59;4924800;28;98909;-69
2023/07/18 00:18:11;;;;;;;;;;;;;;;20.33;32.60;101136.38;4907293;28;99377;-70
2023/07/18 00:20:38;;;;;;;;;;;;;;;20.27;32.73;101136.84;4909764;28;102947;-70
2023/07/18 00:23:09;;;;;;;;;;;;;;;20.18;32.67;101131.34;4925845;28;97844;-70
2023/07/18 00:25:36;;;;;;;;;;;;;;;20.08;32.66;101129.69;4924760;28;98192;-70
2023/07/18 00:28:03;;;;;;;;;;;;;;;20.03;32.80;101129.00;4909075;28;97868;-70
2023/07/18 00:30:30;;;;;;;;;;;;;;;19.98;32.70;101137.38;4907843;28;98350;-70
2023/07/18 00:32:57;;;;;;;;;;;;;;;19.91;32.78;101146.00;4905712;28;98127;-70
2023/07/18 00:35:24;;;;;;;;;;;;;;;19.83;32.75;101142.09;4888732;28;98551;-70
2023/07/18 00:37:52;;;;;;;;;;;;;;;19.78;32.81;101150.44;4891011;28;98117;-70
2023/07/18 00:40:19;;;;;;;;;;;;;;;19.73;32.88;101152.50;4906459;28;97964;-70
2023/07/18 00:42:47;;;;;;;;;;;;;;;19.68;32.87;101147.16;4888972;28;98102;-70
2023/07/18 00:45:13;;;;;;;;;;;;;;;19.61;32.90;101151.16;4885237;28;98250;-70
2023/07/18 00:47:42;;;;;;;;;;;;;;;19.54;32.80;101152.69;4919967;28;98063;-70
2023/07/18 00:50:10;;;;;;;;;;;;;;;19.48;32.83;101157.44;4911710;28;98286;-69
2023/07/18 00:52:41;;;;;;;;;;;;;;;19.42;32.97;101152.44;4907327;28;98266;-71
2023/07/18 00:55:08;;;;;;;;;;;;;;;19.35;32.98;101153.66;4885563;28;98288;-70
2023/07/18 00:57:36;;;;;;;;;;;;;;;19.29;33.04;101167.75;4918880;28;98068;-69
2023/07/18 01:00:09;;;;;;;;;;;;;;;19.23;33.08;101169.81;4921852;28;97885;-70
2023/07/18 01:02:36;;;;;;;;;;;;;;;19.17;32.99;101162.81;4906320;28;98218;-70
2023/07/18 01:05:04;;;;;;;;;;;;;;;19.12;32.93;101166.50;4921784;28;98354;-69
2023/07/18 01:07:31;;;;;;;;;;;;;;;19.09;33.18;101160.81;4915853;28;98204;-70
2023/07/18 01:10:24;;;;;;;;;;;;;;;19.03;32.99;101162.88;4918644;28;98096;-70
2023/07/18 01:12:54;;;;;;;;;;;;;;;18.94;32.95;101167.44;4913810;28;98343;-70
2023/07/18 01:15:22;;;;;;;;;;;;;;;18.87;33.10;101167.88;4916717;28;98328;-70
2023/07/18 01:17:50;;;;;;;;;;;;;;;18.83;33.21;101168.78;4884891;28;100884;-70
2023/07/18 01:20:27;;;;;;;;;;;;;;;18.78;33.18;101163.41;4896712;28;98112;-69
2023/07/18 01:22:55;;;;;;;;;;;;;;;18.69;33.01;101160.56;4934225;28;98335;-70
2023/07/18 01:25:21;;;;;;;;;;;;;;;18.63;33.17;101167.25;4903472;28;99800;-69
2023/07/18 01:27:49;;;;;;;;;;;;;;;18.56;33.25;101155.94;4899738;28;98108;-70
2023/07/18 01:30:17;;;;;;;;;;;;;;;18.51;33.08;101165.03;4919117;28;98081;-70
2023/07/18 01:32:44;;;;;;;;;;;;;;;18.50;33.12;101162.59;4923242;28;100264;-70
2023/07/18 01:35:12;;;;;;;;;;;;;;;18.50;33.07;101173.53;4903170;28;98439;-70
2023/07/18 01:37:39;;;;;;;;;;;;;;;18.51;33.31;101170.50;4903711;28;98751;-69
2023/07/18 01:40:08;;;;;;;;;;;;;;;18.51;33.12;101170.50;4920675;28;98281;-70
2023/07/18 01:42:35;;;;;;;;;;;;;;;18.52;33.13;101172.13;4894586;28;98550;-69
2023/07/18 01:45:03;;;;;;;;;;;;;;;18.52;33.21;101165.84;4915287;28;98484;-70
2023/07/18 01:47:31;;;;;;;;;;;;;;;18.51;33.07;101167.78;4919300;28;98332;-70
2023/07/18 01:49:58;;;;;;;;;;;;;;;18.50;33.13;101157.94;4880332;28;98323;-70
2023/07/18 01:52:27;;;;;;;;;;;;;;;18.50;33.21;101168.06;4903025;28;98143;-69
2023/07/18 01:54:57;;;;;;;;;;;;;;;18.47;33.14;101160.47;4903788;28;98637;-69
2023/07/18 01:57:28;;;;;;;;;;;;;;;18.41;33.17;101167.97;4918094;28;99464;-71
2023/07/18 01:59:55;;;;;;;;;;;;;;;18.34;33.29;101170.28;4897754;28;100698;-71
2023/07/18 02:02:21;;;;;;;;;;;;;;;18.26;33.10;101174.53;4887088;28;99440;-70
2023/07/18 02:04:49;;;;;;;;;;;;;;;18.20;33.18;101172.22;4904914;28;98189;-70
2023/07/18 02:07:16;;;;;;;;;;;;;;;18.13;33.10;101178.06;4902159;28;99278;-69
2023/07/18 02:09:42;;;;;;;;;;;;;;;18.06;33.33;101169.44;4883710;28;98339;-71
2023/07/18 02:12:09;;;;;;;;;;;;;;;17.99;33.27;101169.81;4903410;28;98125;-69
2023/07/18 02:14:39;;;;;;;;;;;;;;;17.95;33.24;101170.72;4919428;28;98002;-70
2023/07/18 02:17:08;;;;;;;;;;;;;;;17.91;33.47;101173.25;4883884;28;98504;-69
2023/07/18 02:19:35;;;;;;;;;;;;;;;17.88;33.26;101166.50;4896439;28;99729;-70
2023/07/18 02:22:03;;;;;;;;;;;;;;;17.85;33.52;101174.47;4917725;28;98231;-70
2023/07/18 02:24:29;;;;;;;;;;;;;;;17.84;33.36;101179.09;4916700;28;97967;-70
2023/07/18 02:26:56;;;;;;;;;;;;;;;17.88;33.56;101184.75;4888636;28;98095;-71
2023/07/18 02:29:23;;;;;;;;;;;;;;;17.89;33.50;101187.19;4881116;28;98221;-70
2023/07/18 02:31:50;;;;;;;;;;;;;;;17.90;33.39;101191.53;4902067;28;97925;-70
2023/07/18 02:34:17;;;;;;;;;;;;;;;17.91;33.34;101193.13;4918210;28;98280;-70
2023/07/18 02:36:43;;;;;;;;;;;;;;;17.92;33.39;101199.44;4916388;28;98140;-70
2023/07/18 02:39:10;;;;;;;;;;;;;;;17.88;33.55;101195.66;4917787;28;98143;-70
2023/07/18 02:41:37;;;;;;;;;;;;;;;17.84;33.40;101195.47;4902160;28;98579;-70
2023/07/18 02:44:06;;;;;;;;;;;;;;;17.80;33.46;101196.34;4901569;28;98162;-70
2023/07/18 02:46:32;;;;;;;;;;;;;;;17.70;33.58;101205.47;4915179;28;99883;-69
2023/07/18 02:48:59;;;;;;;;;;;;;;;17.62;33.72;101203.44;4918165;28;98362;-70
2023/07/18 02:51:25;;;;;;;;;;;;;;;17.55;33.64;101205.72;4915654;28;98761;-70
2023/07/18 02:53:52;;;;;;;;;;;;;;;17.51;33.65;101202.75;4879204;28;98371;-70
2023/07/18 02:56:19;;;;;;;;;;;;;;;17.45;33.83;101203.13;4916592;28;99534;-69
2023/07/18 02:58:47;;;;;;;;;;;;;;;17.40;33.62;101199.38;4916902;28;98136;-70
2023/07/18 03:01:14;;;;;;;;;;;;;;;17.37;33.75;101205.44;4898270;28;98132;-69
2023/07/18 03:03:42;;;;;;;;;;;;;;;17.34;33.86;101207.94;4901260;28;99572;-70
2023/07/18 03:06:09;;;;;;;;;;;;;;;17.32;33.81;101212.88;4915395;28;98082;-70
2023/07/18 03:08:36;;;;;;;;;;;;;;;17.29;33.70;101214.28;4901697;28;97995;-70
2023/07/18 03:11:05;;;;;;;;;;;;;;;17.26;33.88;101220.31;4901559;28;117598;-71
2023/07/18 03:13:33;;;;;;;;;;;;;;;17.22;33.72;101218.47;4904196;28;97966;-70
2023/07/18 03:16:04;;;;;;;;;;;;;;;17.17;33.54;101219.31;4917688;28;98181;-70
2023/07/18 03:18:31;;;;;;;;;;;;;;;17.13;33.88;101219.13;4921534;28;98171;-69
2023/07/18 03:20:57;;;;;;;;;;;;;;;17.13;33.88;101221.00;4900185;28;98078;-69
2023/07/18 03:23:25;;;;;;;;;;;;;;;17.15;33.91;101219.63;4915906;28;99453;-69
2023/07/18 03:25:53;;;;;;;;;;;;;;;17.18;33.73;101218.25;4908834;28;100181;-70
2023/07/18 03:28:19;;;;;;;;;;;;;;;17.23;33.84;101222.81;4915913;28;98807;-69
2023/07/18 03:30:46;;;;;;;;;;;;;;;17.28;33.69;101222.72;4887686;28;98038;-70
2023/07/18 03:33:15;;;;;;;;;;;;;;;17.31;33.79;101224.88;4887505;28;98062;-70
2023/07/18 03:35:41;;;;;;;;;;;;;;;17.34;33.80;101222.38;4883030;28;99946;-69
2023/07/18 03:38:08;;;;;;;;;;;;;;;17.36;33.81;101228.31;4902452;28;98417;-69
2023/07/18 03:40:35;;;;;;;;;;;;;;;17.39;33.66;101219.56;4919743;28;98018;-71
2023/07/18 03:43:02;;;;;;;;;;;;;;;17.42;33.60;101224.44;4917330;28;101201;-69
2023/07/18 03:45:28;;;;;;;;;;;;;;;17.45;33.63;101228.50;4900093;28;98068;-71
2023/07/18 03:47:55;;;;;;;;;;;;;;;17.47;33.71;101228.19;4883126;28;98167;-69
2023/07/18 03:50:22;;;;;;;;;;;;;;;17.50;33.75;101227.59;4917429;28;98767;-70
2023/07/18 03:52:49;;;;;;;;;;;;;;;17.50;33.81;101219.44;4885814;28;98164;-69
2023/07/18 03:55:17;;;;;;;;;;;;;;;17.49;33.60;101221.34;4885311;28;98186;-70
2023/07/18 03:57:44;;;;;;;;;;;;;;;17.50;33.95;101220.22;4918384;28;98378;-69
2023/07/18 04:00:14;;;;;;;;;;;;;;;17.49;33.74;101210.44;4898643;28;98049;-70
2023/07/18 04:02:45;;;;;;;;;;;;;;;17.48;33.73;101211.53;4892239;28;98886;-69
2023/07/18 04:05:13;;;;;;;;;;;;;;;17.45;33.61;101214.03;4909844;28;103780;-69
2023/07/18 04:07:41;;;;;;;;;;;;;;;17.42;33.74;101208.09;4898735;28;98235;-70
2023/07/18 04:10:08;;;;;;;;;;;;;;;17.40;33.76;101204.81;4878809;28;98089;-70
2023/07/18 04:12:35;;;;;;;;;;;;;;;17.40;33.72;101204.03;4901165;28;98108;-70
2023/07/18 04:15:01;;;;;;;;;;;;;;;17.40;33.65;101207.56;4918274;28;98686;-76
2023/07/18 04:17:28;;;;;;;;;;;;;;;17.42;33.67;101210.00;4918571;28;99538;-75
2023/07/18 04:19:57;;;;;;;;;;;;;;;17.42;33.67;101210.81;4882810;28;98152;-70
2023/07/18 04:22:24;;;;;;;;;;;;;;;17.40;33.90;101215.72;4879245;28;98160;-75
2023/07/18 04:24:50;;;;;;;;;;;;;;;17.37;33.63;101210.88;4901599;28;100461;-70
2023/07/18 04:27:17;;;;;;;;;;;;;;;17.36;33.83;101216.63;4900433;28;101643;-75
2023/07/18 04:29:44;;;;;;;;;;;;;;;17.34;33.88;101216.13;4897757;28;98399;-74
2023/07/18 04:32:11;;;;;;;;;;;;;;;17.37;33.69;101219.06;4911432;28;98089;-70
2023/07/18 04:34:37;;;;;;;;;;;;;;;17.41;33.64;101209.19;4915014;28;98181;-75
2023/07/18 04:37:04;;;;;;;;;;;;;;;17.46;33.84;101215.66;4879714;28;98325;-70
2023/07/18 04:39:31;;;;;;;;;;;;;;;17.49;33.66;101217.78;4897879;28;98060;-70
2023/07/18 04:41:58;;;;;;;;;;;;;;;17.49;33.59;101213.16;4914941;28;98400;-70
2023/07/18 04:44:24;;;;;;;;;;;;;;;17.52;33.73;101222.66;4912013;28;97935;-70
2023/07/18 04:46:52;;;;;;;;;;;;;;;17.53;33.72;101216.13;4914751;28;98594;-70
2023/07/18 04:49:19;;;;;;;;;;;;;;;17.56;33.63;101220.94;4879850;28;99591;-75
2023/07/18 04:51:46;;;;;;;;;;;;;;;17.60;33.80;101219.25;4914007;28;98161;-75
2023/07/18 04:54:13;;;;;;;;;;;;;;;17.64;33.78;101220.28;4879337;28;100516;-74
2023/07/18 04:56:40;;;;;;;;;;;;;;;17.70;33.50;101216.38;4915554;28;98219;-74
2023/07/18 04:59:07;;;;;;;;;;;;;;;17.79;33.58;101230.16;4879429;28;98204;-70
2023/07/18 05:01:36;;;;;;;;;;;;;;;17.91;33.56;101227.78;4884584;28;98061;-74
2023/07/18 05:04:03;;;;;;;;;;;;;;;18.06;33.52;101227.53;4920800;28;99872;-70
2023/07/18 05:06:29;;;;;;;;;;;;;;;18.22;33.45;101219.88;4918232;28;98393;-75
2023/07/18 05:08:56;;;;;;;;;;;;;;;18.34;33.37;101222.13;4901552;28;98237;-70
2023/07/18 05:11:23;;;;;;;;;;;;;;;18.44;33.49;101221.16;4897576;28;99260;-74
2023/07/18 05:13:50;;;;;;;;;;;;;;;18.51;33.24;101216.91;4915856;28;98342;-74
2023/07/18 05:16:16;;;;;;;;;;;;;;;18.64;33.17;101224.28;4901009;28;97923;-70
2023/07/18 05:18:43;;;;;;;;;;;;;;;18.85;33.25;101223.91;4916013;28;97956;-75
2023/07/18 05:21:10;;;;;;;;;;;;;;;19.07;33.17;101220.44;4916439;28;98048;-75
2023/07/18 05:23:36;;;;;;;;;;;;;;;19.29;32.99;101217.75;4900551;28;98253;-75
2023/07/18 05:26:03;;;;;;;;;;;;;;;19.51;32.79;101222.44;4898845;28;99211;-75
2023/07/18 05:28:30;;;;;;;;;;;;;;;19.73;32.68;101218.13;4898994;28;98158;-75
2023/07/18 05:30:57;;;;;;;;;;;;;;;19.95;32.67;101220.06;4936363;28;98262;-70
2023/07/18 05:33:23;;;;;;;;;;;;;;;20.17;32.77;101221.97;4915290;28;98645;-75
2023/07/18 05:35:50;;;;;;;;;;;;;;;20.43;32.62;101214.66;4918819;28;98025;-75
2023/07/18 05:38:17;;;;;;;;;;;;;;;20.78;32.38;101223.84;4913877;28;98207;-75
2023/07/18 05:40:43;;;;;;;;;;;;;;;21.11;32.36;101215.25;4899375;28;99072;-76
2023/07/18 05:43:10;;;;;;;;;;;;;;;21.53;32.07;101213.66;4915847;28;98275;-75
2023/07/18 05:45:37;;;;;;;;;;;;;;;21.52;32.39;101220.28;4878534;28;99609;-75
2023/07/18 05:48:04;;;;;;;;;;;;;;;21.59;32.30;101217.06;4897733;28;99526;-74
2023/07/18 05:50:30;;;;;;;;;;;;;;;21.63;32.47;101225.47;4919001;28;98321;-71
2023/07/18 05:52:56;;;;;;;;;;;;;;;21.66;32.50;101220.13;4911869;28;103649;-71
2023/07/18 05:55:24;;;;;;;;;;;;;;;21.68;32.52;101217.84;4899994;28;98556;-70
2023/07/18 05:57:50;;;;;;;;;;;;;;;21.79;32.54;101232.84;4917086;28;98292;-75
2023/07/18 06:00:16;;;;;;;;;;;;;;;22.23;32.21;101225.38;4899632;28;98561;-71
2023/07/18 06:02:43;;;;;;;;;;;;;;;22.70;32.05;101214.34;4885244;28;98016;-71
2023/07/18 06:05:11;;;;;;;;;;;;;;;23.12;32.01;101216.41;4884557;28;98485;-75
2023/07/18 06:07:39;;;;;;;;;;;;;;;23.27;31.95;101221.31;4899349;28;98179;-76
2023/07/18 06:10:06;;;;;;;;;;;;;;;23.55;31.90;101221.56;4882947;28;98177;-71
2023/07/18 06:12:32;;;;;;;;;;;;;;;23.70;31.98;101228.44;4919109;28;98424;-71
2023/07/18 06:14:58;;;;;;;;;;;;;;;24.68;31.42;101218.44;4900657;28;100800;-76
2023/07/18 06:17:25;;;;;;;;;;;;;;;25.44;31.02;101216.81;4878186;28;98648;-71
2023/07/18 06:19:53;;;;;;;;;;;;;;;25.89;30.97;101212.97;4898353;28;99379;-72
2023/07/18 06:22:20;;;;;;;;;;;;;;;25.84;31.28;101221.53;4898519;28;98647;-75
2023/07/18 06:24:49;;;;;;;;;;;;;;;26.02;31.35;101212.94;4885613;28;98165;-71
2023/07/18 06:27:17;;;;;;;;;;;;;;;26.31;31.25;101211.69;4901589;28;98661;-72
2023/07/18 06:29:44;;;;;;;;;;;;;;;26.42;31.42;101212.75;4900429;28;99569;-75
2023/07/18 06:32:12;;;;;;;;;;;;;;;26.27;31.62;101211.59;4882434;28;98387;-76
2023/07/18 06:34:40;;;;;;;;;;;;;;;26.21;31.60;101213.00;4902636;28;98371;-71
2023/07/18 06:37:09;;;;;;;;;;;;;;;26.17;31.83;101214.88;4892166;28;98949;-76
2023/07/18 06:39:36;;;;;;;;;;;;;;;26.31;31.59;101212.50;4901456;28;98152;-74
2023/07/18 06:42:05;;;;;;;;;;;;;;;26.44;31.42;101218.72;4900103;28;98398;-71
2023/07/18 06:44:31;;;;;;;;;;;;;;;26.69;31.32;101219.38;4898643;28;99161;-75
2023/07/18 06:46:58;;;;;;;;;;;;;;;26.68;31.37;101220.50;4879174;28;98346;-75
2023/07/18 06:49:27;;;;;;;;;;;;;;;27.54;30.72;101223.22;4901623;28;98534;-71
2023/07/18 06:51:53;;;;;;;;;;;;;;;28.40;30.24;101216.53;4912844;28;99431;-71
2023/07/18 06:54:20;;;;;;;;;;;;;;;28.70;30.16;101221.38;4919384;28;98882;-71
2023/07/18 06:56:47;;;;;;;;;;;;;;;29.13;30.10;101219.25;4918287;28;101092;-72
2023/07/18 06:59:14;;;;;;;;;;;;;;;29.58;29.78;101221.81;4899629;28;98199;-76
2023/07/18 07:01:42;;;;;;;;;;;;;;;29.97;29.76;101231.78;4914250;28;98371;-72
2023/07/18 07:04:10;;;;;;;;;;;;;;;30.30;29.67;101222.56;4894058;28;98205;-72
2023/07/18 07:06:41;;;;;;;;;;;;;;;30.61;29.69;101226.00;4911465;28;99428;-76
2023/07/18 07:09:09;;;;;;;;;;;;;;;31.08;29.64;101227.13;4884734;28;98277;-76
2023/07/18 07:11:36;;;;;;;;;;;;;;;31.64;29.39;101214.69;4915832;28;98244;-72
2023/07/18 07:14:06;;;;;;;;;;;;;;;31.69;29.51;101214.28;4900399;28;98338;-77
2023/07/18 07:16:33;;;;;;;;;;;;;;;31.49;29.93;101214.63;4899139;28;100570;-72
2023/07/18 07:19:00;;;;;;;;;;;;;;;31.01;30.27;101214.00;4913865;28;97948;-76
2023/07/18 07:21:27;;;;;;;;;;;;;;;31.39;30.01;101209.78;4898782;28;98362;-76
2023/07/18 07:23:55;;;;;;;;;;;;;;;31.97;29.38;101208.00;4914892;28;98189;-77
2023/07/18 07:26:22;;;;;;;;;;;;;;;33.19;28.64;101205.91;4896421;28;98606;-78
2023/07/18 07:28:49;;;;;;;;;;;;;;;33.92;28.71;101205.94;4914912;28;98696;-76
2023/07/18 07:31:16;;;;;;;;;;;;;;;33.73;28.53;101209.25;4899100;28;98307;-72
2023/07/18 07:33:42;;;;;;;;;;;;;;;33.77;29.20;101198.06;4899734;28;98632;-76
2023/07/18 07:36:09;;;;;;;;;;;;;;;34.33;28.31;101199.66;4900669;28;98334;-71
2023/07/18 07:38:37;;;;;;;;;;;;;;;34.74;28.69;101196.06;4907961;28;98255;-72
2023/07/18 07:41:04;;;;;;;;;;;;;;;35.20;28.67;101203.16;4898321;28;98162;-76
2023/07/18 07:43:30;;;;;;;;;;;;;;;35.67;28.25;101194.97;4899245;28;99076;-76
2023/07/18 07:45:57;;;;;;;;;;;;;;;36.18;28.11;101190.19;4877833;28;98160;-72
2023/07/18 07:48:24;;;;;;;;;;;;;;;36.67;27.83;101192.53;4900408;28;98368;-72
2023/07/18 07:50:51;;;;;;;;;;;;;;;36.51;28.14;101191.25;4913280;28;98404;-77
2023/07/18 07:53:18;;;;;;;;;;;;;;;36.64;27.89;101185.00;4910705;28;98297;-72
2023/07/18 07:55:44;;;;;;;;;;;;;;;37.22;27.56;101177.00;4914041;28;98156;-78
2023/07/18 07:58:11;;;;;;;;;;;;;;;37.81;27.43;101185.34;4899636;28;100039;-72
2023/07/18 08:00:39;;;;;;;;;;;;;;;38.43;27.27;101182.59;4896128;28;98444;-71
2023/07/18 08:03:05;;;;;;;;;;;;;;;39.07;27.33;101187.69;4895847;28;98953;-72
2023/07/18 08:05:32;;;;;;;;;;;;;;;39.59;27.03;101181.72;4914832;28;98351;-77
2023/07/18 08:07:59;;;;;;;;;;;;;;;40.23;26.47;101173.97;4904171;28;98936;-78
2023/07/18 08:10:27;;;;;;;;;;;;;;;40.84;26.42;101166.19;4900518;28;98498;-78
2023/07/18 08:12:58;;;;;;;;;;;;;;;41.31;26.20;101161.63;4917702;28;98557;-72
2023/07/18 08:15:26;;;;;;;;;;;;;;;41.88;26.12;101162.94;4897742;28;98211;-72
2023/07/18 08:17:54;;;;;;;;;;;;;;;42.48;25.87;101158.75;4920712;28;99594;-72
2023/07/18 08:20:22;;;;;;;;;;;;;;;43.08;26.03;101155.28;4885429;28;98643;-77
2023/07/18 08:22:52;;;;;;;;;;;;;;;43.48;25.67;101150.56;4904663;28;98470;-78
2023/07/18 08:25:20;;;;;;;;;;;;;;;43.71;25.61;101146.19;4899298;28;98640;-72
2023/07/18 08:27:47;;;;;;;;;;;;;;;44.13;25.56;101143.22;4902877;28;98462;-71
2023/07/18 08:30:14;;;;;;;;;;;;;;;44.18;25.53;101136.88;4883800;28;98378;-78
2023/07/18 08:32:42;;;;;;;;;;;;;;;44.56;25.48;101132.44;4887994;28;97944;-78
2023/07/18 08:35:09;;;;;;;;;;;;;;;45.24;25.24;101129.53;4904579;28;98357;-78
2023/07/18 08:37:36;;;;;;;;;;;;;;;45.74;24.87;101123.78;4922406;28;102027;-73
2023/07/18 08:40:05;;;;;;;;;;;;;;;46.23;24.87;101124.19;4907499;28;98426;-71
2023/07/18 08:42:32;;;;;;;;;;;;;;;46.37;24.94;101117.56;4921550;28;98089;-72
2023/07/18 08:44:58;;;;;;;;;;;;;;;46.34;25.12;101121.47;4921992;28;98073;-70
2023/07/18 08:47:25;;;;;;;;;;;;;;;46.51;24.69;101107.38;4889280;28;98165;-72
2023/07/18 08:49:52;;;;;;;;;;;;;;;46.84;24.72;101109.75;4881433;28;98086;-71
2023/07/18 08:52:19;;;;;;;;;;;;;;;47.33;24.14;101093.56;4902942;28;98409;-71
2023/07/18 08:54:45;;;;;;;;;;;;;;;47.58;24.59;101096.78;4901978;28;98549;-71
2023/07/18 08:57:12;;;;;;;;;;;;;;;47.69;24.29;101099.72;4921135;28;98211;-70
2023/07/18 08:59:39;;;;;;;;;;;;;;;47.93;24.17;101088.66;4921120;28;97999;-72
2023/07/18 09:02:06;;;;;;;;;;;;;;;47.75;24.38;101086.25;4907364;28;100313;-71
2023/07/18 09:04:33;;;;;;;;;;;;;;;46.82;24.93;101074.50;4899103;28;98722;-70
2023/07/18 09:07:02;;;;;;;;;;;;;;;45.21;25.94;101067.19;4901965;28;98940;-72
2023/07/18 09:09:28;;;;;;;;;;;;;;;46.72;24.94;101066.13;4896943;28;99089;-71
2023/07/18 09:11:59;;;;;;;;;;;;;;;47.02;24.66;101067.94;4898564;28;98292;-71
2023/07/18 09:14:27;;;;;;;;;;;;;;;47.01;24.90;101067.16;4902944;28;98250;-71
2023/07/18 09:16:55;;;;;;;;;;;;;;;47.24;24.61;101065.19;4915134;28;98092;-71
2023/07/18 09:19:43;;;;;;;;;;;;;;;47.21;24.63;101064.16;4902962;28;101485;-71
2023/07/18 09:22:11;;;;;;;;;;;;;;;47.20;24.65;101058.94;4914738;28;98458;-70
2023/07/18 09:24:38;;;;;;;;;;;;;;;46.94;24.75;101051.28;4916015;28;98491;-70
2023/07/18 09:27:05;;;;;;;;;;;;;;;44.53;26.42;101040.50;4899362;28;98154;-70
2023/07/18 09:29:32;;;;;;;;;;;;;;;44.55;26.35;101040.78;4902098;28;98442;-71
2023/07/18 09:31:58;;;;;;;;;;;;;;;44.41;26.27;101035.09;4901724;28;98156;-71
2023/07/18 09:34:27;;;;;;;;;;;;;;;44.30;26.40;101038.53;4900581;28;98541;-71
2023/07/18 09:37:03;;;;;;;;;;;;;;;44.56;26.08;101035.88;4901951;28;98107;-71
2023/07/18 09:39:30;;;;;;;;;;;;;;;45.21;25.60;101038.75;4881423;28;98283;-71
2023/07/18 09:41:58;;;;;;;;;;;;;;;45.97;24.83;101039.47;4886364;28;98192;-73
2023/07/18 09:44:26;;;;;;;;;;;;;;;45.50;24.98;101035.00;4882941;28;98244;-72
2023/07/18 09:46:53;;;;;;;;;;;;;;;46.60;24.41;101038.06;4917468;28;98215;-71
2023/07/18 09:49:21;;;;;;;;;;;;;;;47.24;24.29;101033.81;4886116;28;98324;-71
2023/07/18 09:51:50;;;;;;;;;;;;;;;47.23;24.38;101033.03;4915341;28;98283;-72
2023/07/18 09:54:19;;;;;;;;;;;;;;;47.73;24.14;101017.50;4932572;28;98783;-70
2023/07/18 09:56:47;;;;;;;;;;;;;;;46.05;24.79;101013.41;4884357;28;98361;-71
2023/07/18 09:59:13;;;;;;;;;;;;;;;47.33;24.08;101019.41;4919789;28;98290;-74
2023/07/18 10:01:40;;;;;;;;;;;;;;;47.81;23.91;101009.22;4900450;28;98132;-71
2023/07/18 10:04:07;;;;;;;;;;;;;;;48.33;23.69;101005.91;4899804;28;99300;-74
2023/07/18 10:06:34;;;;;;;;;;;;;;;48.43;23.91;100998.69;4879061;28;98160;-74
2023/07/18 10:09:00;;;;;;;;;;;;;;;48.71;23.79;101000.72;4900649;28;98591;-75
2023/07/18 10:11:28;;;;;;;;;;;;;;;48.62;23.93;100981.78;4878154;28;98300;-76
2023/07/18 10:13:57;;;;;;;;;;;;;;;48.53;23.79;100979.97;4899476;28;98128;-72
2023/07/18 10:16:27;;;;;;;;;;;;;;;48.51;24.03;100984.66;4915999;28;98985;-75
2023/07/18 10:18:54;;;;;;;;;;;;;;;48.66;24.02;100985.94;4899789;28;98375;-72
2023/07/18 10:21:35;;;;;;;;;;;;;;;48.70;24.03;100967.72;4897505;28;98028;-78
2023/07/18 10:24:20;;;;;;;;;;;;;;;48.73;23.88;100964.59;4899140;28;98336;-73
2023/07/18 10:27:07;;;;;;;;;;;;;;;48.71;23.84;100972.16;4932087;28;98016;-76
2023/07/18 10:29:38;;;;;;;;;;;;;;;48.59;24.04;100962.81;4893443;28;98529;-72
2023/07/18 10:32:06;;;;;;;;;;;;;;;48.56;24.13;100961.00;4901444;28;98160;-73
2023/07/18 10:34:39;;;;;;;;;;;;;;;48.62;24.20;100956.06;4899172;28;99975;-73
2023/07/18 10:37:09;;;;;;;;;;;;;;;47.98;24.36;100949.28;4902026;28;98297;-73
2023/07/18 10:39:39;;;;;;;;;;;;;;;48.40;24.27;100943.31;4884224;28;98254;-72
2023/07/18 10:42:06;;;;;;;;;;;;;;;48.26;24.33;100943.59;4917186;28;98278;-77
2023/07/18 10:44:39;;;;;;;;;;;;;;;48.08;24.11;100933.47;4932184;28;99687;-73
2023/07/18 10:47:16;;;;;;;;;;;;;;;45.84;25.45;100927.31;4885571;28;98008;-72
2023/07/18 10:49:44;;;;;;;;;;;;;;;46.05;25.15;100913.78;4915965;28;98512;-76
2023/07/18 10:52:12;;;;;;;;;;;;;;;47.17;24.24;100923.09;4900412;28;98293;-78
2023/07/18 10:54:42;;;;;;;;;;;;;;;47.16;24.42;100913.75;4914828;28;98385;-72
2023/07/18 10:57:10;;;;;;;;;;;;;;;45.57;25.35;100917.94;4899159;28;99329;-76
2023/07/18 10:59:37;;;;;;;;;;;;;;;46.42;24.37;100919.53;4897712;28;97884;-76
2023/07/18 11:02:04;;;;;;;;;;;;;;;46.83;24.08;100902.97;4900236;28;98257;-72
2023/07/18 11:04:31;;;;;;;;;;;;;;;46.90;24.32;100899.63;4915735;28;98071;-73
2023/07/18 11:06:59;;;;;;;;;;;;;;;46.82;24.25;100900.63;4917700;28;98770;-75
2023/07/18 11:09:27;;;;;;;;;;;;;;;46.62;24.13;100902.34;4898488;28;98351;-76
2023/07/18 11:11:54;;;;;;;;;;;;;;;46.66;24.41;100891.47;4877900;28;98314;-76
2023/07/18 11:14:21;;;;;;;;;;;;;;;46.53;24.64;100884.63;4899316;28;98293;-72
2023/07/18 11:16:48;;;;;;;;;;;;;;;46.50;24.80;100883.59;4900456;28;98225;-74
2023/07/18 11:19:15;;;;;;;;;;;;;;;46.54;24.35;100881.28;4915260;28;98151;-76
2023/07/18 11:21:42;;;;;;;;;;;;;;;46.31;24.42;100874.66;4899785;28;98158;-78
2023/07/18 11:24:09;;;;;;;;;;;;;;;46.08;24.84;100862.28;4900957;28;98594;-82
2023/07/18 11:26:35;;;;;;;;;;;;;;;45.89;24.47;100846.88;4916032;28;97997;-83
2023/07/18 11:29:03;;;;;;;;;;;;;;;45.57;24.73;100849.66;4914888;28;98255;-80
2023/07/18 11:31:41;;;;;;;;;;;;;;;43.73;26.14;100838.00;4870231;28;98604;-83
2023/07/18 11:34:08;;;;;;;;;;;;;;;44.42;25.51;100852.84;4911760;28;98942;-73
2023/07/18 11:36:36;;;;;;;;;;;;;;;44.19;25.67;100845.25;4872241;28;102018;-77
2023/07/18 11:39:04;;;;;;;;;;;;;;;44.02;25.67;100847.78;4913437;28;98653;-78
2023/07/18 11:41:40;;;;;;;;;;;;;;;43.69;25.92;100839.47;4899759;28;99163;-74
2023/07/18 11:44:08;;;;;;;;;;;;;;;43.29;26.23;100849.28;4898780;28;99056;-76
2023/07/18 11:46:43;;;;;;;;;;;;;;;42.98;25.98;100841.94;4912597;28;97985;-74
2023/07/18 11:49:12;;;;;;;;;;;;;;;42.67;26.75;100839.50;4915093;28;99289;-77
2023/07/18 11:51:42;;;;;;;;;;;;;;;42.41;26.33;100831.44;4900089;28;98311;-74
2023/07/18 11:54:08;;;;;;;;;;;;;;;42.32;26.75;100834.28;4890380;28;102015;-72
2023/07/18 11:56:35;;;;;;;;;;;;;;;42.19;26.30;100828.03;4913994;28;97759;-74
2023/07/18 11:59:01;;;;;;;;;;;;;;;42.00;26.61;100813.19;4881386;28;98487;-73
2023/07/18 12:01:28;;;;;;;;;;;;;;;41.77;26.60;100820.28;4916643;28;98395;-73
2023/07/18 12:03:55;;;;;;;;;;;;;;;40.86;27.14;100821.88;4898811;28;98213;-78
2023/07/18 12:06:22;;;;;;;;;;;;;;;40.20;27.43;100833.41;4916186;28;98581;-76
2023/07/18 12:08:50;;;;;;;;;;;;;;;40.63;26.95;100836.56;4918413;28;99257;-77
2023/07/18 12:11:18;;;;;;;;;;;;;;;40.70;26.76;100839.88;4903579;28;99873;-73
2023/07/18 12:13:47;;;;;;;;;;;;;;;40.72;26.72;100842.25;4915368;28;99299;-73
2023/07/18 12:16:14;;;;;;;;;;;;;;;40.74;26.68;100836.91;4901113;28;100385;-73
2023/07/18 12:18:42;;;;;;;;;;;;;;;40.68;26.73;100833.94;4901517;28;98490;-72
2023/07/18 12:21:09;;;;;;;;;;;;;;;40.54;26.74;100830.88;4917236;28;98786;-72
2023/07/18 12:23:37;;;;;;;;;;;;;;;40.40;26.73;100824.59;4881372;28;98249;-73
2023/07/18 12:26:04;;;;;;;;;;;;;;;40.37;26.80;100831.16;4914429;28;99084;-73
2023/07/18 12:28:31;;;;;;;;;;;;;;;40.34;26.75;100832.06;4931714;28;98111;-74
2023/07/18 12:30:57;;;;;;;;;;;;;;;40.32;26.71;100826.09;4903507;28;98574;-72
2023/07/18 12:33:23;;;;;;;;;;;;;;;40.36;26.70;100826.72;4913781;28;99500;-73
2023/07/18 12:35:50;;;;;;;;;;;;;;;40.35;26.80;100830.03;4900609;28;98954;-73
2023/07/18 12:38:16;;;;;;;;;;;;;;;40.31;26.74;100820.94;4899718;28;98340;-73